Latest Coastal Weather Observations for Cato Island

IDQ60701

Issued at 8:31 pm EST Wednesday 1 April 2015 (issued every 10 minutes, with the page automatically refreshed every 10 minutes)

About coastal observations | Map of coastal stations | Coastal observations for QLD | Marine services | Other Formats
Station Details ID: 200601 Name: CATO ISLAND Lat: -23.25 Lon: 155.54 Height: 6.3 m
Data from the previous 72 hours. | See also: Recent months for locations in Queensland
Date/Time
EST
Temp

°C
Wind Pressure Rain
since 9am
mm
Weather Cloud Vis
km
Sea
Height
m
Swell
Dir
 
Speed
knots
Gust
knots
hPa Trend Height
m
Period
s
Dir
01/08:30pm 26.0 E 21 24 1015.5 - - - - - - - - -
01/08:00pm 25.8 E 20 24 1015.3 - - - - - - - - -
01/07:30pm 25.3 E 23 27 1014.9 - - - - - - - - -
01/07:00pm 25.1 ENE 24 27 1014.7 - - - - - - - - -
01/06:30pm 26.2 E 20 24 1014.6 - - - - - - - - -
01/06:00pm 26.0 E 19 22 1014.4 - - - - - - - - -
01/05:30pm 25.8 E 18 21 1014.2 - - - - - - - - -
01/05:00pm 25.5 E 19 22 1014.2 - - - - - - - - -
01/04:30pm 25.6 ENE 17 21 1014.0 - - - - - - - - -
01/04:00pm 25.3 ENE 19 23 1014.0 - - - - - - - - -
01/03:30pm 25.8 E 13 15 1014.0 - - - - - - - - -
01/03:00pm 25.8 E 17 19 1013.9 - - - - - - - - -
01/02:30pm 25.8 E 21 24 1013.9 - - - - - - - - -
01/02:00pm 26.2 E 18 22 1013.9 - - - - - - - - -
01/01:30pm 26.9 ENE 17 20 1014.2 - - - - - - - - -
01/01:00pm 27.3 ENE 17 19 1014.6 - - - - - - - - -
01/12:30pm 27.0 ENE 17 19 1015.0 - - - - - - - - -
01/12:00pm 26.7 ENE 18 21 1015.2 - - - - - - - - -
01/11:30am 26.8 ENE 19 21 1015.8 - - - - - - - - -
01/11:00am 26.7 ENE 17 20 1016.4 - - - - - - - - -
01/10:30am 26.9 ENE 18 21 1016.8 - - - - - - - - -
01/10:00am 26.6 ENE 19 21 1017.1 - - - - - - - - -
01/09:40am 26.7 ENE 20 22 1017.2 - - - - - - - - -
01/09:30am 26.2 E 20 23 1017.2 - - - - - - - - -
01/09:00am 26.0 E 21 24 1017.0 - - - - - - - - -
01/08:30am 26.0 E 22 25 1016.9 - - - - - - - - -
01/08:00am 26.0 E 21 24 1016.7 - - - - - - - - -
01/07:30am 25.7 E 20 23 1016.6 - - - - - - - - -
01/07:00am 25.2 E 23 28 1016.3 - - - - - - - - -
01/06:30am 25.5 E 21 24 1016.2 - - - - - - - - -
01/06:00am 26.2 E 16 19 1016.3 - - - - - - - - -
01/05:30am 25.9 E 16 18 1015.9 - - - - - - - - -
01/05:00am 25.9 E 13 16 1015.9 - - - - - - - - -
01/04:30am 25.6 E 13 16 1015.9 - - - - - - - - -
01/04:00am 25.9 E 14 16 1015.9 - - - - - - - - -
01/03:30am 25.9 E 17 20 1015.6 - - - - - - - - -
01/03:00am 25.8 E 16 18 1015.4 - - - - - - - - -
01/02:30am 25.6 ENE 17 21 1015.5 - - - - - - - - -
01/02:00am 25.8 ENE 18 21 1015.8 - - - - - - - - -
01/01:30am 25.6 ENE 19 21 1016.0 - - - - - - - - -
01/01:00am 25.3 ENE 20 24 1016.5 - - - - - - - - -
01/12:30am 25.1 E 20 23 1016.8 - - - - - - - - -
01/12:00am 25.4 ENE 20 23 1017.0 - - - - - - - - -
 
Date/Time
EST
Temp

°C
Wind Pressure Rain
since 9am
mm
Weather Cloud Vis
km
Sea
Height
m
Swell
Dir
 
Speed
knots
Gust
knots
hPa Trend Height
m
Period
s
Dir
31/11:30pm 25.4 ENE 24 27 1017.4 - - - - - - - - -
31/11:00pm 26.0 ENE 21 24 1017.4 - - - - - - - - -
31/10:30pm 26.4 E 22 26 1017.4 - - - - - - - - -
31/10:00pm 26.1 E 21 25 1017.6 - - - - - - - - -
31/09:30pm 26.4 E 21 25 1017.8 - - - - - - - - -
31/09:00pm 26.3 E 24 28 1017.6 - - - - - - - - -
31/08:30pm 26.2 E 23 27 1017.5 - - - - - - - - -
31/08:00pm 26.3 E 24 27 1017.4 - - - - - - - - -
31/07:30pm 26.5 E 21 24 1017.0 - - - - - - - - -
31/07:00pm 26.2 E 23 25 1016.8 - - - - - - - - -
31/06:30pm 26.2 E 23 27 1016.7 - - - - - - - - -
31/06:00pm 25.9 E 22 26 1016.4 - - - - - - - - -
31/05:30pm 26.3 E 22 25 1016.1 - - - - - - - - -
31/05:00pm 26.3 E 20 23 1016.0 - - - - - - - - -
31/04:30pm 26.3 E 19 22 1016.0 - - - - - - - - -
31/04:00pm 26.4 E 20 23 1015.8 - - - - - - - - -
31/03:30pm 26.3 E 21 24 1015.8 - - - - - - - - -
31/03:00pm 26.5 E 20 22 1016.0 - - - - - - - - -
31/02:30pm 26.4 E 20 24 1016.0 - - - - - - - - -
31/02:00pm 26.8 E 19 23 1016.0 - - - - - - - - -
31/01:30pm 27.0 E 19 22 1016.4 - - - - - - - - -
31/01:00pm 26.6 E 18 22 1016.9 - - - - - - - - -
31/12:30pm 27.0 E 20 23 1017.4 - - - - - - - - -
31/12:00pm 26.8 E 20 23 1017.6 - - - - - - - - -
31/11:30am 27.0 E 20 24 1017.9 - - - - - - - - -
31/11:00am 26.5 E 21 25 1018.3 - - - - - - - - -
31/10:30am 26.7 E 23 26 1018.5 - - - - - - - - -
31/10:00am 26.8 E 23 25 1018.7 - - - - - - - - -
31/09:30am 26.6 E 23 26 1018.7 - - - - - - - - -
31/09:00am 26.3 E 24 28 1018.7 - - - - - - - - -
31/08:30am 26.4 E 24 28 1018.8 - - - - - - - - -
31/08:00am 26.3 E 23 26 1018.8 - - - - - - - - -
31/07:30am 26.0 E 24 27 1018.5 - - - - - - - - -
31/07:00am 26.2 E 23 28 1018.3 - - - - - - - - -
31/06:30am 26.0 E 23 27 1018.1 - - - - - - - - -
31/06:00am 26.0 E 24 27 1017.9 - - - - - - - - -
31/05:30am 25.7 E 22 26 1017.8 - - - - - - - - -
31/05:00am 25.8 E 23 27 1017.5 - - - - - - - - -
31/04:30am 25.7 E 22 25 1017.2 - - - - - - - - -
31/04:00am 25.8 E 22 25 1017.1 - - - - - - - - -
31/03:30am 25.6 E 22 24 1016.9 - - - - - - - - -
31/03:00am 25.7 E 22 25 1017.0 - - - - - - - - -
31/02:30am 25.6 E 21 25 1017.2 - - - - - - - - -
31/02:00am 25.9 E 22 25 1017.5 - - - - - - - - -
31/01:30am 25.8 E 22 26 1017.8 - - - - - - - - -
31/01:00am 25.9 ESE 21 24 1018.2 - - - - - - - - -
31/12:30am 25.8 ESE 20 23 1018.5 - - - - - - - - -
31/12:00am 25.9 ESE 22 25 1018.7 - - - - - - - - -
 
Date/Time
EST
Temp

°C
Wind Pressure Rain
since 9am
mm
Weather Cloud Vis
km
Sea
Height
m
Swell
Dir
 
Speed
knots
Gust
knots
hPa Trend Height
m
Period
s
Dir
30/11:30pm 25.8 E 21 24 1019.0 - - - - - - - - -
30/11:00pm 25.8 ESE 21 26 1019.1 - - - - - - - - -
30/10:30pm 25.7 E 22 26 1019.1 - - - - - - - - -
30/10:00pm 26.0 ESE 23 26 1019.2 - - - - - - - - -
30/09:30pm 25.0 E 23 27 1019.6 - - - - - - - - -
30/09:00pm 26.1 E 22 25 1019.7 - - - - - - - - -
30/08:30pm 26.0 E 22 25 1019.6 - - - - - - - - -
30/08:00pm 26.2 E 22 26 1019.3 - - - - - - - - -
30/07:30pm 26.1 ESE 22 25 1019.2 - - - - - - - - -
30/07:00pm 26.2 E 21 25 1019.1 - - - - - - - - -
30/06:30pm 26.0 E 21 25 1018.9 - - - - - - - - -
30/06:15pm 25.9 ESE 22 25 1018.8 - - - - - - - - -
30/06:00pm 24.5 E 22 27 1018.7 - - - - - - - - -
30/05:30pm 24.5 E 19 23 1018.5 - - - - - - - - -
30/05:16pm 25.7 E 15 25 1018.2 - - - - - - - - -
30/05:00pm 25.1 E 15 19 1018.1 - - - - - - - - -
30/04:30pm 24.8 ENE 19 25 1017.9 - - - - - - - - -
30/04:00pm 24.9 E 21 27 1017.5 - - - - - - - - -
30/03:35pm 25.5 E 23 27 1017.1 - - - - - - - - -
30/03:30pm 25.3 ESE 19 24 1017.2 - - - - - - - - -
30/03:26pm 25.7 ESE 20 24 1017.1 - - - - - - - - -
30/03:00pm 26.1 E 22 26 1017.1 - - - - - - - - -
30/02:30pm 26.2 E 21 24 1017.1 - - - - - - - - -
30/02:00pm 26.0 E 20 24 1017.4 - - - - - - - - -
30/01:30pm 26.1 ESE 21 24 1017.6 - - - - - - - - -
30/01:00pm 26.1 ESE 20 24 1018.0 - - - - - - - - -
30/12:30pm 26.4 E 20 22 1018.2 - - - - - - - - -
30/12:00pm 26.5 E 19 21 1018.7 - - - - - - - - -
30/11:30am 26.5 E 19 22 1019.2 - - - - - - - - -
30/11:00am 25.9 E 19 23 1019.4 - - - - - - - - -
30/10:30am 26.2 ESE 20 23 1019.8 - - - - - - - - -
30/10:00am 26.0 ESE 20 23 1019.9 - - - - - - - - -
30/09:30am 25.5 ESE 22 26 1019.9 - - - - - - - - -
30/09:00am 26.2 ESE 21 27 1020.0 - - - - - - - - -
30/08:30am 26.9 E 21 23 1020.0 - - - - - - - - -
30/08:00am 26.5 ESE 20 26 1019.8 - - - - - - - - -
30/07:30am 26.4 E 22 25 1019.5 - - - - - - - - -
30/07:00am 26.4 ESE 22 27 1019.2 - - - - - - - - -
30/06:30am 26.1 ESE 22 26 1018.8 - - - - - - - - -
30/06:00am 25.8 ESE 21 25 1018.6 - - - - - - - - -
30/05:30am 26.0 ESE 21 24 1018.4 - - - - - - - - -
30/05:00am 26.0 ESE 21 25 1018.1 - - - - - - - - -
30/04:30am 26.0 ESE 22 25 1017.7 - - - - - - - - -
30/04:00am 26.1 ESE 22 26 1017.4 - - - - - - - - -
30/03:30am 25.8 ESE 20 24 1017.3 - - - - - - - - -
30/03:00am 25.5 ESE 22 25 1017.6 - - - - - - - - -
30/02:30am 25.9 ESE 21 25 1017.6 - - - - - - - - -
30/02:00am 25.7 ESE 21 25 1018.0 - - - - - - - - -
30/01:30am 25.9 ESE 22 25 1018.0 - - - - - - - - -
30/01:00am 25.7 ESE 21 25 1018.4 - - - - - - - - -
30/12:30am 26.0 E 19 22 1018.7 - - - - - - - - -
30/12:00am 25.8 E 20 23 1019.0 - - - - - - - - -
 
Date/Time
EST
Temp

°C
Wind Pressure Rain
since 9am
mm
Weather Cloud Vis
km
Sea
Height
m
Swell
Dir
 
Speed
knots
Gust
knots
hPa Trend Height
m
Period
s
Dir
29/11:30pm 26.1 ESE 22 24 1019.1 - - - - - - - - -
29/11:00pm 25.9 ESE 22 27 1019.3 - - - - - - - - -
29/10:30pm 26.0 ESE 21 24 1019.4 - - - - - - - - -
29/10:00pm 26.0 ESE 21 24 1019.7 - - - - - - - - -
29/09:30pm 26.2 ESE 20 23 1019.8 - - - - - - - - -
29/09:00pm 25.9 ESE 18 23 1019.8 - - - - - - - - -

Other Formats:

Comma delimited format used in spreadsheet applications
http://www.bom.gov.au/fwo/IDQ60701/IDQ60701.94394.axf

JavaScript Object Notation format (JSON) in row-major order
http://www.bom.gov.au/fwo/IDQ60701/IDQ60701.94394.json